Date,TemperatureHighF,TemperatureAvgF,TemperatureLowF,DewpointHighF,DewpointAvgF,DewpointLowF,HumidityHigh,HumidityAvg,HumidityLow,PressureMaxIn,PressureMinIn,WindSpeedMaxMPH,WindSpeedAvgMPH,GustSpeedMaxMPH,PrecipitationSumIn
2013-1-1,13,4,-4,-5,-12,-20,45,45,45,29.93,29.82,9,3,10,0.00
2013-1-2,22,17,8,5,-1,-9,58,45,33,29.85,29.76,9,3,11,0.00
2013-1-3,24,20,17,8,5,1,56,53,47,29.88,29.76,11,4,14,0.00
2013-1-4,18,14,12,0,-1,-3,51,50,45,29.91,29.88,5,1,5,0.00
2013-1-5,33,22,7,29,10,-7,86,61,51,29.91,29.58,11,3,13,0.00
2013-1-6,33,24,13,19,9,5,73,54,40,29.96,29.58,15,5,17,0.00
2013-1-7,33,23,10,14,8,2,73,54,37,29.96,29.70,17,5,17,0.00
2013-1-8,36,29,18,24,16,12,87,60,41,29.82,29.61,13,4,15,0.00
2013-1-9,39,33,19,20,13,3,58,44,31,30.17,29.61,17,6,22,0.00
2013-1-10,39,30,18,31,15,5,85,56,40,30.20,29.61,13,4,21,0.16
2013-1-11,43,38,35,42,37,31,98,96,85,29.61,29.34,13,3,15,0.05
2013-1-12,44,33,20,42,17,1,98,54,33,29.73,29.31,20,7,22,0.00
2013-1-13,20,15,10,1,-5,-11,44,41,36,29.91,29.64,15,6,16,0.00
2013-1-14,23,13,6,-2,-8,-14,43,38,33,30.11,29.91,11,3,13,0.00
2013-1-15,28,17,8,2,-3,-10,55,41,32,30.11,29.76,15,3,15,0.00
2013-1-16,31,24,15,23,7,-2,73,48,36,29.79,29.46,20,7,24,0.00
2013-1-17,23,16,8,0,-7,-13,38,35,27,30.08,29.79,15,5,15,0.00
2013-1-18,38,26,8,20,7,-13,61,44,36,30.11,29.52,20,6,22,0.00
2013-1-19,42,33,10,24,14,-16,67,46,25,29.67,29.34,31,8,33,0.00
2013-1-20,13,7,4,-14,-18,-22,29,29,29,29.99,29.67,31,8,32,0.00
2013-1-21,7,-1,-8,-19,-26,-32,29,29,29,29.96,29.82,18,9,20,0.00
2013-1-22,4,-3,-9,-21,-28,-33,29,29,29,30.02,29.96,13,5,15,0.00
2013-1-23,15,8,-1,0,-13,-25,53,38,29,30.11,29.79,22,6,24,0.00
2013-1-24,14,5,-3,-1,-9,-16,51,51,51,30.35,30.05,16,4,17,0.00
2013-1-25,21,17,11,6,0,-7,61,48,34,30.05,29.64,15,6,15,0.00
2013-1-26,26,14,4,1,-6,-13,45,41,32,30.08,29.91,10,3,11,0.00
2013-1-27,32,27,22,30,13,-2,89,57,35,30.02,29.58,15,5,17,0.00
2013-1-28,36,33,30,34,28,21,98,84,56,29.70,29.52,10,2,13,0.16
2013-1-29,48,39,34,48,38,28,98,96,79,29.52,29.26,15,5,15,1.19
2013-1-30,34,26,14,34,23,2,98,89,59,29.31,29.08,17,2,19,0.05
2013-1-31,14,8,-1,2,-4,-12,60,60,60,29.82,29.31,15,3,16,0.00
2013-2-1,3,-2,-8,-7,-12,-18,60,60,60,29.99,29.82,15,6,15,0.00
2013-2-2,10,5,-1,-1,-6,-11,60,60,60,29.85,29.73,11,3,13,0.00
2013-2-3,17,9,2,2,-5,-9,60,52,36,29.73,29.64,13,3,17,0.00
2013-2-4,18,11,6,-5,-10,-16,43,39,34,29.73,29.64,13,2,13,0.00
2013-2-5,26,16,1,13,-2,-20,69,45,35,29.82,29.46,15,5,15,0.00
2013-2-6,30,17,0,22,1,-16,76,49,36,29.93,29.79,11,2,14,0.00
2013-2-7,34,29,20,29,23,15,87,79,69,29.82,29.67,19,6,22,0.00
2013-2-8,27,18,4,15,2,-12,78,50,34,30.11,29.82,17,6,20,0.00
2013-2-9,27,20,6,18,8,-10,81,60,45,30.11,29.82,13,3,15,0.00
2013-2-10,40,32,20,40,27,11,98,81,58,29.82,29.11,22,5,25,0.81
2013-2-11,37,30,25,28,15,6,73,52,41,29.67,29.11,24,9,27,0.00
2013-2-12,27,23,20,11,5,1,66,46,35,29.79,29.55,14,5,17,0.00
2013-2-13,36,27,18,20,15,10,82,61,40,29.58,29.40,10,3,12,0.00
2013-2-14,34,31,23,31,21,7,89,68,40,29.73,29.28,17,5,19,0.05
2013-2-15,24,15,8,7,-6,-13,50,37,29,29.91,29.73,17,6,17,0.00
2013-2-16,17,8,2,-8,-15,-22,35,33,28,29.91,29.85,11,4,13,0.00
2013-2-17,24,12,-4,1,-14,-28,35,30,27,29.91,29.64,13,2,14,0.00
2013-2-18,42,32,24,27,14,1,84,48,35,29.64,29.17,17,6,17,0.00
2013-2-19,27,12,5,22,3,-4,84,67,64,29.85,29.23,20,9,24,0.00
2013-2-20,23,12,2,4,-5,-10,64,48,32,30.08,29.85,14,6,14,0.00
2013-2-21,24,17,7,18,3,-14,80,55,36,30.14,29.82,13,5,17,0.00
2013-2-22,33,26,22,25,17,10,77,68,47,29.82,29.49,15,4,15,0.00
2013-2-23,29,25,23,13,9,4,65,49,34,29.64,29.52,11,5,13,0.00
2013-2-24,36,25,17,13,9,5,65,51,35,29.85,29.64,9,2,11,0.11
2013-2-25,37,28,18,15,11,8,75,51,32,29.88,29.79,6,1,7,0.00
2013-2-26,35,29,23,26,18,9,91,64,39,29.79,29.40,25,7,28,0.00
2013-2-27,32,30,27,28,25,21,89,81,65,29.52,29.37,22,11,22,0.00
2013-2-28,32,29,23,28,14,6,89,55,41,29.85,29.52,20,8,20,0.00
2013-3-1,28,21,12,11,3,-8,63,45,33,29.96,29.85,15,5,17,0.00
2013-3-2,31,14,9,4,-6,-13,46,40,28,29.96,29.85,14,4,14,0.00
2013-3-3,33,14,0,3,-10,-21,46,33,25,29.88,29.82,9,1,10,0.05
2013-3-4,36,21,6,12,-1,-16,57,38,31,29.85,29.79,10,2,13,0.11
2013-3-5,31,26,23,19,14,9,80,59,40,29.85,29.64,17,6,20,0.00
2013-3-6,32,28,25,17,12,5,70,52,41,30.05,29.85,16,7,17,0.00
2013-3-7,38,23,7,9,2,-8,57,41,30,30.23,30.02,9,2,9,0.05
2013-3-8,41,26,11,14,8,-2,61,45,31,30.26,30.11,10,2,12,0.00
2013-3-9,40,34,28,33,19,10,87,55,38,30.20,29.70,14,5,17,0.32
2013-3-10,39,36,33,37,34,31,97,91,86,30.02,29.58,14,4,15,1.35
2013-3-11,33,32,27,33,28,8,98,88,44,29.93,29.37,13,1,13,0.05
2013-3-12,31,26,22,21,8,-2,80,46,32,29.82,29.55,0,0,0,0.00
2013-3-13,30,23,16,2,-2,-6,50,35,23,30.14,29.82,15,2,16,0.00
2013-3-14,33,25,15,19,4,-5,70,40,31,30.14,29.85,9,3,12,0.00
2013-3-15,38,31,26,24,20,15,80,66,50,29.85,29.70,11,2,11,0.00
2013-3-16,29,23,18,19,6,-2,75,49,32,29.96,29.67,10,2,11,0.05
2013-3-17,36,21,11,7,-3,-10,44,34,27,30.14,29.85,12,4,13,0.05
2013-3-18,34,25,15,24,11,-2,76,55,44,29.85,29.37,18,5,20,0.11
2013-3-19,28,18,12,1,-3,-8,52,38,28,29.82,29.49,17,7,18,0.00
2013-3-20,18,12,6,-7,-11,-16,35,33,30,29.85,29.82,17,7,17,0.00
2013-3-21,30,16,7,2,-8,-17,41,32,25,29.85,29.82,12,5,14,0.00
2013-3-22,36,21,9,7,-2,-13,45,36,30,29.91,29.85,10,2,10,0.00
2013-3-23,42,26,13,11,4,-2,53,39,26,29.96,29.88,8,1,8,0.00
2013-3-24,32,29,24,17,11,5,65,47,37,29.91,29.64,19,7,19,0.00
2013-3-25,34,29,21,12,9,4,56,43,36,29.93,29.67,19,7,19,0.00
2013-3-26,39,33,27,12,10,7,43,38,31,30.05,29.93,12,6,12,0.00
2013-3-27,42,35,29,12,7,2,41,32,23,30.17,30.05,8,3,10,0.00
2013-3-28,46,34,23,12,6,0,38,31,22,30.20,30.11,7,2,8,0.00
2013-3-29,50,36,25,12,6,1,36,29,21,30.20,30.05,7,1,7,0.00
2013-3-30,48,42,36,36,21,10,81,45,30,29.93,29.64,12,5,14,0.00
2013-3-31,44,37,30,36,22,3,94,59,30,29.73,29.52,22,6,22,0.00
2013-4-1,33,28,23,6,1,-3,41,31,25,29.99,29.73,18,8,21,0.00
2013-4-2,36,29,22,5,1,-2,37,30,22,30.17,29.99,14,6,16,0.00
2013-4-3,44,32,22,9,4,0,42,30,23,30.32,30.08,10,3,11,0.00
2013-4-4,54,41,30,19,11,5,36,30,23,30.08,29.79,18,7,22,0.00
2013-4-5,47,36,30,11,8,5,38,30,22,30.11,29.88,11,4,14,0.00
2013-4-6,57,43,30,45,23,8,85,46,26,29.99,29.37,15,6,17,0.05
2013-4-7,52,40,34,41,20,15,74,46,27,29.79,29.37,20,6,21,0.00
2013-4-8,45,39,34,37,27,17,92,63,46,29.85,29.52,17,5,17,0.54
2013-4-9,38,36,33,37,32,20,98,86,59,29.93,29.76,17,5,17,1.13
2013-4-10,34,33,31,33,29,22,97,88,63,29.96,29.79,10,0,13,1.02
2013-4-11,37,35,33,33,29,24,91,81,66,29.79,29.43,18,4,23,0.43
2013-4-12,37,34,32,35,29,21,98,83,53,29.61,29.37,11,3,13,0.11
2013-4-13,36,34,30,26,16,10,76,49,34,29.82,29.58,16,2,16,0.00
2013-4-14,48,36,29,32,21,13,63,54,42,29.85,29.43,23,5,23,0.11
2013-4-15,60,47,39,49,30,16,98,56,22,29.79,29.40,26,6,27,0.54
2013-4-16,51,40,33,17,15,11,48,36,26,30.17,29.79,15,5,17,0.00
2013-4-17,42,39,34,34,23,13,79,54,34,30.20,29.76,17,4,17,0.54
2013-4-18,53,42,39,52,38,22,98,87,50,29.76,29.14,30,6,30,0.32
2013-4-19,39,34,28,23,14,3,60,44,32,29.73,29.14,27,10,27,0.00
2013-4-20,45,33,25,8,4,0,43,30,20,30.26,29.73,15,6,18,0.00
2013-4-21,53,39,30,20,11,7,49,32,21,30.35,30.11,21,6,21,0.00
2013-4-22,67,51,41,25,20,13,39,29,20,30.11,29.85,13,5,15,0.00
2013-4-23,53,42,36,42,21,12,78,45,26,29.85,29.70,19,7,19,0.00
2013-4-24,53,41,32,14,11,6,43,30,21,29.85,29.79,22,6,22,0.00
2013-4-25,51,42,35,28,16,9,71,36,21,30.14,29.79,22,6,28,0.00
2013-4-26,69,53,36,28,20,10,40,28,20,30.14,29.96,22,6,23,0.00
2013-4-27,66,56,46,36,29,23,66,37,23,30.08,29.88,13,4,13,0.00
2013-4-28,75,59,41,32,25,20,53,31,15,29.88,29.64,9,2,10,0.00
2013-4-29,71,60,51,44,37,29,71,45,22,29.70,29.58,14,4,15,0.00
2013-4-30,85,70,58,54,39,26,83,38,14,29.73,29.52,19,7,24,0.32
2013-5-1,79,64,52,34,29,20,37,27,20,30.14,29.73,15,4,17,0.00
2013-5-2,52,44,36,38,24,17,76,47,28,30.20,30.08,20,9,22,0.70
2013-5-3,47,40,34,45,36,26,98,87,68,30.08,29.88,18,6,22,0.38
2013-5-4,76,56,43,45,35,25,93,53,18,29.93,29.85,13,2,13,0.11
2013-5-5,78,60,45,40,30,22,78,37,16,29.93,29.88,10,2,11,0.00
2013-5-6,80,61,46,31,26,18,48,28,15,29.93,29.85,9,2,10,0.00
2013-5-7,85,66,49,30,24,18,37,22,13,29.93,29.85,10,2,13,0.00
2013-5-8,86,67,50,31,27,21,46,24,13,29.91,29.82,9,1,9,0.00
2013-5-9,71,58,44,48,36,24,86,48,22,29.82,29.79,16,2,16,0.97
2013-5-10,55,44,39,40,34,27,94,70,38,29.85,29.76,17,7,21,0.76
2013-5-11,51,45,38,48,26,10,98,54,21,29.88,29.64,26,8,30,0.05
2013-5-12,52,42,34,16,12,8,41,30,21,29.96,29.88,20,8,22,0.00
2013-5-13,64,46,29,29,16,8,75,33,18,30.02,29.76,12,3,15,0.00
2013-5-14,85,66,49,36,28,16,33,24,16,29.76,29.37,13,5,15,0.00
2013-5-15,74,68,62,36,25,18,26,20,16,29.70,29.40,20,6,20,0.00
2013-5-16,82,67,54,33,26,16,37,22,15,29.88,29.70,16,2,16,0.00
2013-5-17,58,53,49,45,32,14,73,48,19,30.02,29.85,13,2,14,0.43
2013-5-18,82,64,51,45,40,32,74,45,20,29.93,29.79,10,3,12,0.00
2013-5-19,87,71,58,52,43,34,72,40,18,29.82,29.55,14,4,19,0.00
2013-5-20,82,72,61,59,41,33,83,37,20,29.67,29.49,20,4,22,0.27
2013-5-21,77,69,60,54,39,30,71,35,21,29.55,29.46,17,4,22,0.00
2013-5-22,62,58,52,58,50,37,94,76,43,29.67,29.52,15,3,15,1.19
2013-5-23,62,51,42,50,30,14,95,50,19,30.20,29.67,20,8,24,0.11
2013-5-24,68,50,37,26,21,16,60,35,17,30.32,30.20,10,2,11,0.00
2013-5-25,69,55,46,22,19,12,37,25,17,30.29,30.17,10,2,13,0.00
2013-5-26,68,55,39,26,21,15,52,29,17,30.20,30.02,12,2,14,0.00
2013-5-27,57,53,50,45,32,19,82,48,26,30.05,29.79,20,5,20,0.05
2013-5-28,68,57,50,62,52,45,96,83,53,29.79,29.58,8,1,9,0.27
2013-5-29,86,69,59,66,50,37,98,59,19,29.79,29.64,18,3,18,0.16
2013-5-30,84,72,63,64,52,39,90,56,22,29.76,29.58,20,4,28,0.65
2013-5-31,78,68,63,59,49,36,86,54,25,29.64,29.55,17,5,17,0.00
2013-6-1,78,69,63,66,46,32,98,50,21,29.55,29.46,17,4,17,0.00
2013-6-2,66,55,46,44,27,21,54,34,23,29.88,29.55,17,6,19,0.00
2013-6-3,72,59,46,30,26,22,49,30,17,29.96,29.85,10,2,11,0.00
2013-6-4,63,57,50,40,32,25,64,38,28,30.08,29.93,11,2,11,0.16
2013-6-5,62,55,50,46,39,28,78,57,29,30.02,29.85,13,3,14,0.16
2013-6-6,59,54,51,54,42,33,88,65,46,29.85,29.82,10,2,11,0.43
2013-6-7,76,58,50,41,33,26,63,43,18,29.88,29.79,9,2,10,0.00
2013-6-8,73,61,51,48,34,28,69,40,22,29.88,29.79,11,2,11,0.00
2013-6-9,81,66,53,44,36,31,53,35,20,29.91,29.70,17,4,20,0.00
2013-6-10,81,69,58,56,44,37,73,44,22,29.73,29.67,8,1,9,0.00
2013-6-11,82,70,61,56,45,34,82,44,21,29.79,29.70,8,1,10,0.00
2013-6-12,80,67,58,60,53,40,84,64,25,29.79,29.55,18,3,19,1.29
2013-6-13,76,66,58,50,38,30,75,40,21,29.99,29.64,13,5,17,0.00
2013-6-14,83,66,54,45,35,25,69,36,16,30.05,29.88,9,2,10,0.00
2013-6-15,82,67,56,63,49,26,95,56,25,29.93,29.67,13,3,15,0.92
2013-6-16,84,72,61,64,43,28,93,45,16,29.76,29.70,13,2,15,0.00
2013-6-17,84,69,57,45,37,29,58,33,16,29.88,29.73,19,2,28,0.00
2013-6-18,74,62,52,46,33,21,68,38,16,29.99,29.85,13,3,14,0.00
2013-6-19,80,64,45,32,28,23,52,29,15,30.05,29.96,10,2,10,0.00
2013-6-20,90,72,56,37,31,24,33,23,15,30.05,29.93,11,3,13,0.00
2013-6-21,76,70,64,64,47,32,96,46,26,29.99,29.73,22,3,22,1.56
2013-6-22,83,72,68,66,56,44,92,62,29,29.99,29.79,12,2,17,0.43
2013-6-23,87,74,65,66,53,42,96,52,25,29.91,29.73,15,4,15,0.05
2013-6-24,79,73,67,66,53,38,90,55,24,29.91,29.70,14,3,15,0.00
2013-6-25,80,72,66,66,57,49,98,63,35,29.79,29.67,12,2,12,0.59
2013-6-26,85,74,68,68,54,39,93,57,20,29.70,29.61,10,1,11,0.05
2013-6-27,86,75,68,71,52,34,98,51,18,29.67,29.55,15,3,15,0.00
2013-6-28,77,69,64,61,46,34,86,47,24,29.58,29.49,14,4,16,0.59
2013-6-29,72,65,62,62,49,33,94,62,26,29.73,29.52,18,6,18,0.49
2013-6-30,77,66,56,35,30,26,37,27,18,29.96,29.73,13,5,16,0.00
2013-7-1,84,68,56,37,32,27,45,28,16,30.05,29.93,15,3,16,0.00
2013-7-2,78,65,56,44,29,20,58,28,15,30.05,29.96,13,2,13,0.00
2013-7-3,73,65,59,56,41,24,71,44,25,29.99,29.91,9,2,10,0.00
2013-7-4,83,72,62,59,42,31,89,43,16,29.99,29.88,10,2,10,0.00
2013-7-5,86,74,63,55,43,35,74,36,18,29.96,29.88,12,3,15,0.00
2013-7-6,87,75,63,56,43,36,70,35,18,29.93,29.82,10,2,11,0.00
2013-7-7,89,76,67,60,49,40,78,41,19,29.85,29.79,14,2,14,0.00
2013-7-8,87,76,69,72,57,43,98,57,23,29.88,29.76,14,3,15,2.21
2013-7-9,84,74,67,72,59,48,89,61,30,29.91,29.67,14,3,14,0.76
2013-7-10,77,71,64,61,42,31,73,38,20,29.91,29.70,20,6,20,0.00
2013-7-11,86,70,57,57,38,29,79,36,16,30.02,29.91,9,1,10,0.00
2013-7-12,87,72,59,40,35,29,46,29,13,30.08,29.99,9,2,9,0.00
2013-7-13,89,73,60,44,37,30,46,29,15,30.08,29.99,13,3,13,0.00
2013-7-14,93,76,62,49,41,32,52,31,17,30.14,30.05,9,2,11,0.00
2013-7-15,94,80,68,56,48,40,64,36,17,30.20,30.11,10,1,11,0.00
2013-7-16,91,82,72,68,54,42,80,43,19,30.17,30.11,11,2,13,0.00
2013-7-17,92,82,74,68,54,41,79,42,17,30.20,30.05,12,2,12,0.05
2013-7-18,91,82,73,66,52,40,73,39,18,30.08,29.76,16,4,18,0.00
2013-7-19,90,81,71,58,45,34,53,31,15,29.76,29.61,17,6,22,0.00
2013-7-20,84,72,63,47,38,32,54,31,19,29.85,29.70,10,3,11,0.00
2013-7-21,77,64,59,62,49,32,94,63,22,29.88,29.76,15,2,15,1.56
2013-7-22,84,72,59,67,52,39,98,59,21,29.79,29.49,12,3,15,0.00
2013-7-23,73,66,57,62,37,28,79,36,22,29.88,29.61,17,6,17,0.05
2013-7-24,76,62,51,50,35,26,76,40,18,29.99,29.88,9,1,10,0.00
2013-7-25,78,66,54,58,43,35,76,46,22,29.96,29.85,13,3,15,0.16
2013-7-26,77,66,58,61,47,31,91,53,21,29.85,29.70,17,3,23,0.43
2013-7-27,61,54,48,50,32,23,71,45,26,29.82,29.73,13,5,16,0.00
2013-7-28,66,58,52,46,36,29,79,48,26,29.88,29.70,14,5,16,0.00
2013-7-29,81,63,54,45,35,31,62,37,20,30.08,29.88,10,3,10,0.00
2013-7-30,80,65,55,55,44,32,83,51,20,30.08,29.99,9,2,11,0.00
2013-7-31,79,68,63,61,47,32,89,52,24,29.99,29.82,24,2,24,0.00
2013-8-1,78,67,57,53,38,27,78,41,18,29.88,29.79,15,3,15,0.00
2013-8-2,79,69,62,55,37,27,77,35,18,29.85,29.70,13,3,13,0.00
2013-8-3,76,65,52,49,33,25,68,32,18,30.05,29.85,13,3,15,0.00
2013-8-4,78,64,54,54,36,27,77,39,18,30.14,30.02,8,1,8,0.00
2013-8-5,74,64,55,52,44,37,72,51,28,30.02,29.73,10,2,11,0.00
2013-8-6,83,72,64,64,50,36,92,52,19,29.76,29.64,13,3,14,0.00
2013-8-7,76,68,62,65,49,33,98,56,22,29.88,29.64,23,3,24,1.40
2013-8-8,81,67,56,53,36,28,70,35,17,29.96,29.88,8,2,10,0.00
2013-8-9,80,68,58,44,33,29,46,29,20,29.96,29.85,12,2,12,0.00
2013-8-10,75,64,54,46,35,29,61,36,21,30.08,29.93,9,2,9,0.00
2013-8-11,68,62,55,62,51,39,88,70,47,30.05,29.91,8,0,8,0.22
2013-8-12,80,67,58,67,46,32,97,55,20,29.91,29.79,12,2,15,0.00
2013-8-13,70,59,49,48,29,24,60,32,22,30.08,29.88,15,4,15,0.00
2013-8-14,75,59,45,46,31,26,73,39,18,30.14,29.99,8,1,10,0.00
2013-8-15,78,66,52,51,35,25,81,37,16,30.05,29.96,8,1,8,0.00
2013-8-16,83,68,55,47,36,29,60,34,16,30.11,29.99,8,1,8,0.00
2013-8-17,86,69,57,42,35,27,57,31,14,30.14,30.08,9,1,11,0.00
2013-8-18,85,69,56,49,36,29,69,34,16,30.14,29.99,10,2,10,0.00
2013-8-19,81,69,57,53,40,34,79,39,20,29.99,29.91,12,3,14,0.00
2013-8-20,86,73,62,58,43,36,78,38,18,29.96,29.91,15,3,15,0.00
2013-8-21,88,76,68,56,46,38,63,38,19,29.93,29.76,21,4,22,0.00
2013-8-22,82,70,62,61,48,30,81,51,21,30.02,29.88,10,2,10,0.00
2013-8-23,87,69,55,45,36,29,52,32,16,30.11,30.02,8,1,9,0.00
2013-8-24,85,70,57,48,41,33,65,38,18,30.17,30.05,13,2,13,0.00
2013-8-25,88,76,67,51,44,39,54,34,19,30.08,29.96,17,5,20,0.00
2013-8-26,89,78,70,58,49,39,51,38,20,30.05,29.82,16,4,17,0.00
2013-8-27,94,81,72,64,52,41,71,41,17,29.85,29.67,15,4,15,0.00
2013-8-28,86,75,68,69,55,39,93,56,19,29.96,29.73,14,2,14,0.00
2013-8-29,89,76,64,67,50,38,85,48,18,29.99,29.85,13,2,14,0.00
2013-8-30,88,76,65,64,52,41,78,46,22,29.85,29.67,15,4,15,0.00
2013-8-31,84,70,62,63,48,36,83,49,19,29.79,29.67,10,1,10,0.00
2013-9-1,84,70,62,68,47,30,98,52,16,29.70,29.58,16,4,17,0.00
2013-9-2,69,62,53,51,36,28,72,41,23,29.88,29.70,16,6,16,0.00
2013-9-3,76,61,47,53,35,27,85,44,18,29.96,29.88,10,2,12,0.00
2013-9-4,84,67,55,48,39,32,62,38,16,30.05,29.91,10,2,11,0.00
2013-9-5,80,64,54,51,37,27,75,41,17,30.20,30.05,9,2,11,0.00
2013-9-6,86,68,51,47,37,32,63,34,18,30.14,29.88,11,3,13,0.00
2013-9-7,89,74,66,63,49,39,72,45,19,29.93,29.76,13,2,15,0.22
2013-9-8,71,66,61,51,44,40,68,46,34,29.99,29.82,11,3,13,0.00
2013-9-9,91,76,63,64,51,42,88,47,19,29.88,29.64,11,3,13,0.00
2013-9-10,93,80,70,48,41,34,42,26,14,29.85,29.67,18,5,20,0.00
2013-9-11,79,73,66,62,47,36,80,44,22,29.96,29.85,12,3,13,0.11
2013-9-12,72,63,52,54,35,22,77,39,19,30.05,29.85,16,5,22,0.00
2013-9-13,66,53,42,38,24,19,72,34,18,30.14,30.05,15,4,15,0.00
2013-9-14,72,57,44,36,28,22,71,36,17,30.05,29.85,13,2,14,0.00
2013-9-15,66,57,52,55,41,26,87,60,29,30.17,29.85,16,2,16,0.70
2013-9-16,66,51,40,35,25,22,71,39,23,30.32,30.17,13,4,13,0.00
2013-9-17,70,54,38,46,31,24,77,44,22,30.26,29.96,10,2,13,0.00
2013-9-18,79,66,57,58,46,36,81,53,23,29.99,29.76,15,4,16,0.27
2013-9-19,86,71,66,68,58,43,96,70,24,29.76,29.58,15,4,17,1.02
2013-9-20,69,64,56,66,49,28,98,63,24,29.70,29.58,17,4,17,0.11
2013-9-21,59,52,44,43,30,21,69,45,25,29.85,29.70,15,4,16,0.00
2013-9-22,66,50,38,36,26,20,68,44,20,29.96,29.85,9,1,11,0.00
2013-9-23,71,53,41,45,30,24,76,44,19,30.02,29.91,12,2,13,0.00
2013-9-24,74,57,44,52,33,25,84,46,18,29.93,29.85,12,2,12,0.00
2013-9-25,75,56,44,60,36,26,95,53,18,29.91,29.85,10,2,11,0.00
2013-9-26,80,60,46,57,35,27,84,46,17,29.99,29.88,9,2,10,0.00
2013-9-27,83,64,52,52,35,26,81,39,14,30.05,29.96,14,2,15,0.00
2013-9-28,80,64,54,64,39,29,90,44,20,29.96,29.67,17,5,26,0.32
2013-9-29,76,57,46,52,34,20,94,52,15,29.96,29.82,8,1,8,0.00
2013-9-30,72,58,45,35,26,20,59,32,16,29.88,29.67,17,3,17,0.00
2013-10-1,79,65,54,52,34,22,82,36,20,29.82,29.67,17,4,20,0.00
2013-10-2,81,62,46,29,23,16,43,23,14,30.02,29.82,8,1,8,0.00
2013-10-3,75,64,56,57,41,21,83,46,24,29.85,29.73,10,2,11,0.16
2013-10-4,62,60,57,62,58,53,98,94,78,29.93,29.76,11,2,13,0.43
2013-10-5,71,64,58,69,62,42,98,93,48,29.85,29.58,13,3,14,0.16
2013-10-6,62,54,47,45,26,16,59,36,19,29.61,29.52,10,2,11,0.00
2013-10-7,66,52,45,43,28,16,82,44,18,29.96,29.55,17,3,17,0.05
2013-10-8,75,57,42,41,28,20,74,38,16,30.05,29.93,11,2,15,0.00
2013-10-9,75,59,48,38,27,19,60,33,15,30.11,30.02,10,2,12,0.00
2013-10-10,77,58,45,49,31,20,86,41,15,30.05,29.93,9,2,10,0.00
2013-10-11,77,61,51,50,34,26,79,42,18,29.96,29.79,17,3,17,0.00
2013-10-12,69,60,47,55,32,15,82,37,17,30.05,29.76,15,4,16,0.43
2013-10-13,60,48,39,30,19,12,61,33,19,30.29,30.05,15,2,16,0.00
2013-10-14,65,47,35,38,22,17,67,41,20,30.32,30.05,13,2,13,0.00
2013-10-15,58,52,42,57,40,22,98,66,35,30.05,29.58,14,4,15,0.32
2013-10-16,52,49,46,48,39,27,93,70,45,29.82,29.61,11,3,11,0.00
2013-10-17,55,46,41,35,23,15,70,41,23,29.82,29.70,11,2,12,0.00
2013-10-18,48,44,39,29,24,18,54,45,38,29.82,29.64,15,3,15,0.00
2013-10-19,53,41,34,34,22,11,78,49,21,29.79,29.61,15,2,16,0.00
2013-10-20,47,41,34,43,34,22,98,79,38,29.76,29.58,13,2,13,0.11
2013-10-21,47,37,31,30,12,2,57,35,24,29.82,29.61,15,5,15,0.00
2013-10-22,46,36,28,14,8,3,50,32,22,29.85,29.79,11,4,13,0.00
2013-10-23,42,34,27,13,8,4,44,33,23,29.88,29.82,12,3,14,0.00
2013-10-24,42,35,30,11,8,5,39,32,23,30.14,29.88,15,5,20,0.00
2013-10-25,50,40,29,14,10,7,51,31,21,30.20,29.73,24,6,28,0.00
2013-10-26,49,45,40,16,11,8,34,25,21,29.93,29.64,26,7,27,0.00
2013-10-27,54,42,30,14,10,6,45,28,20,29.93,29.76,20,4,20,0.00
2013-10-28,43,38,35,18,11,7,44,32,28,30.32,29.93,15,5,16,0.00
2013-10-29,56,42,34,31,17,7,69,37,25,30.29,30.02,10,2,11,0.00
2013-10-30,55,48,38,48,40,31,88,74,49,30.02,29.64,11,2,14,0.00
2013-10-31,60,53,42,60,51,39,98,94,82,29.64,29.11,14,2,14,1.24
2013-11-1,45,42,41,39,33,28,88,70,58,29.64,29.14,17,4,17,0.00
2013-11-2,43,40,38,35,28,18,81,63,37,30.02,29.64,11,4,11,0.05
2013-11-3,51,40,30,39,22,12,91,52,24,30.17,30.02,13,3,15,0.00
2013-11-4,54,47,42,31,21,16,51,36,26,30.11,29.91,18,6,22,0.00
2013-11-5,55,50,45,49,36,27,92,61,35,30.14,29.76,13,3,17,0.59
2013-11-6,53,41,31,53,27,5,98,62,30,30.02,29.61,23,7,23,0.27
2013-11-7,41,32,25,16,10,7,61,40,26,30.08,30.02,11,3,13,0.00
2013-11-8,43,35,24,26,15,10,85,48,29,30.14,29.67,15,4,20,0.00
2013-11-9,49,44,38,22,15,7,42,31,26,29.93,29.61,23,8,23,0.00
2013-11-10,47,41,38,12,9,6,30,27,22,30.17,29.93,17,7,21,0.00
2013-11-11,41,31,23,25,6,-6,75,36,26,30.41,29.93,20,8,24,0.05
2013-11-12,28,22,17,-1,-4,-8,43,32,23,30.55,30.38,15,5,16,0.00
2013-11-13,41,29,17,4,0,-5,45,28,21,30.38,29.88,26,9,26,0.00
2013-11-14,47,37,30,15,6,-1,40,27,22,29.88,29.73,18,6,18,0.00
2013-11-15,54,41,32,19,15,12,51,35,23,29.79,29.76,13,3,13,0.00
2013-11-16,57,46,34,50,38,14,96,73,42,29.76,29.34,20,7,22,0.16
2013-11-17,57,49,39,50,37,12,89,64,32,29.52,29.08,24,7,29,1.19
2013-11-18,39,31,25,13,5,2,38,33,30,30.11,29.49,23,9,25,0.00
2013-11-19,43,30,20,18,7,2,57,39,23,30.23,30.08,12,3,13,0.00
2013-11-20,41,36,31,27,13,5,70,40,23,30.11,29.96,20,5,20,0.00
2013-11-21,42,38,36,32,26,21,79,64,43,30.14,29.99,12,3,13,0.00
2013-11-22,36,29,23,26,7,-6,75,42,25,30.32,30.11,18,7,18,0.00
2013-11-23,25,16,9,-3,-12,-18,33,28,25,30.55,30.26,22,10,24,0.00
2013-11-24,26,16,7,-6,-13,-20,29,26,24,30.53,30.05,21,6,22,0.00
2013-11-25,31,26,21,12,4,-9,58,40,24,30.05,29.82,24,8,26,0.00
2013-11-26,31,23,11,10,-3,-15,43,31,23,30.05,29.85,21,8,24,0.00
2013-11-27,26,18,10,2,-9,-16,43,30,24,30.11,30.02,15,5,16,0.00
2013-11-28,26,21,15,3,-2,-7,45,36,31,30.35,29.99,13,3,13,0.00
2013-11-29,30,21,9,5,-2,-9,58,37,25,30.44,30.17,10,2,13,0.00
2013-11-30,42,33,26,12,8,2,42,35,28,30.17,29.88,13,4,15,0.00
2013-12-1,40,30,24,13,8,2,51,39,28,30.02,29.88,11,3,11,0.00
2013-12-2,39,31,20,25,13,7,65,48,33,29.88,29.64,13,3,13,0.00
2013-12-3,36,34,33,30,27,17,88,75,51,29.67,29.58,14,4,15,0.11
2013-12-4,47,39,33,47,36,14,98,91,43,29.67,29.31,23,5,24,0.16
2013-12-5,34,20,10,17,-5,-14,48,32,27,30.11,29.46,24,8,24,0.00
2013-12-6,13,8,3,-12,-16,-20,32,32,32,30.38,30.11,16,8,17,0.00
2013-12-7,12,4,-2,-12,-19,-24,32,32,32,30.50,30.38,15,4,15,0.00
2013-12-8,17,12,3,2,-9,-20,55,39,26,30.44,29.82,11,3,12,0.00
2013-12-9,16,8,-4,1,-11,-28,55,42,29,29.99,29.76,26,6,26,0.00
2013-12-10,16,6,-6,-8,-19,-30,37,29,28,30.05,29.73,20,6,20,0.00
2013-12-11,11,3,-5,-15,-22,-30,29,29,29,30.32,30.05,17,6,17,0.00
2013-12-12,17,10,-4,-7,-14,-29,35,31,28,30.29,29.99,13,5,14,0.00
2013-12-13,21,16,14,-3,-6,-9,44,36,32,30.08,29.99,13,4,16,0.00
2013-12-14,22,18,14,6,2,-2,57,49,42,30.08,29.76,14,4,16,0.00
2013-12-15,18,6,-4,5,-9,-18,56,48,47,29.96,29.76,15,6,20,0.00
2013-12-16,12,4,-6,-4,-11,-20,48,48,48,29.99,29.82,11,3,12,0.00
2013-12-17,32,22,12,14,3,-6,71,43,31,29.91,29.70,17,6,17,0.00
2013-12-18,31,20,8,5,-5,-14,42,33,25,29.93,29.58,14,4,16,0.00
2013-12-19,27,24,20,13,6,1,59,46,37,29.88,29.61,15,5,22,0.00
2013-12-20,23,21,19,14,8,5,73,57,48,29.79,29.67,17,7,17,0.00
2013-12-21,25,23,21,20,16,13,80,75,62,29.76,29.64,11,3,13,0.00
2013-12-22,25,21,17,17,11,6,73,64,49,29.96,29.58,20,7,21,0.00
2013-12-23,20,13,4,11,3,-6,69,65,62,30.23,29.96,10,2,11,0.00
2013-12-24,13,1,-10,3,-9,-20,62,62,62,30.35,30.11,10,2,11,0.00
2013-12-25,21,16,8,11,4,-2,65,58,47,30.11,29.91,13,5,17,0.00
2013-12-26,20,17,11,8,2,-5,61,52,40,30.05,29.91,11,2,13,0.00
2013-12-27,34,21,5,16,6,-6,73,52,40,30.08,29.82,16,3,17,0.00
2013-12-28,39,31,21,20,13,8,80,47,32,29.88,29.61,13,4,13,0.16
2013-12-29,33,16,-5,21,-5,-29,65,39,29,30.05,29.58,27,8,27,0.00
2013-12-30,0,-6,-16,-25,-30,-39,29,29,29,30.14,29.99,8,2,9,0.00
2013-12-31,6,1,-5,-20,-24,-29,29,29,29,30.20,29.99,11,4,13,0.00
2014-1-1,7,2,-5,-19,-23,-30,29,29,29,30.23,30.14,15,7,17,0.00
2014-1-2,8,3,-7,-18,-22,-31,29,29,29,30.23,30.11,16,7,17,0.00